Time;durP1;ratioP1;P1;durP2;ratioP2;P2;SDS_P1;SDS_P2;PMS_P1;PMS_P2;Temp;Humidity;BMP_temperature;BMP_pressure;BME280_temperature;BME280_humidity;BME280_pressure;Samples;Min_cycle;Max_cycle;Signal;HPM_P1;HPM_P2
2022/01/17 00:00:23;;;;;;;8.25;4.55;;;27.00;99.90;;;;;;5034331;28;20101;-65
2022/01/17 00:02:51;;;;;;;7.88;4.55;;;27.10;99.90;;;;;;5035584;28;20050;-65
2022/01/17 00:05:19;;;;;;;7.55;4.78;;;27.30;99.90;;;;;;5032075;28;20079;-65
2022/01/17 00:07:46;;;;;;;9.73;5.10;;;27.40;99.90;;;;;;5034865;28;20104;-65
2022/01/17 00:10:15;;;;;;;11.27;4.15;;;27.70;99.90;;;;;;5034133;28;20033;-65
2022/01/17 00:12:45;;;;;;;10.35;4.93;;;27.90;99.90;;;;;;5021003;28;20394;-65
2022/01/17 00:15:23;;;;;;;10.27;5.70;;;27.90;99.90;;;;;;5021966;28;20429;-66
2022/01/17 00:18:07;;;;;;;16.63;6.10;;;28.10;99.90;;;;;;5022093;28;20095;-65
2022/01/17 00:20:35;;;;;;;17.77;6.43;;;28.00;99.90;;;;;;5024035;28;20026;-66
2022/01/17 00:23:02;;;;;;;16.73;5.50;;;28.10;99.90;;;;;;5026765;28;20054;-65
2022/01/17 00:25:30;;;;;;;18.38;7.38;;;28.30;99.90;;;;;;5031767;28;20017;-65
2022/01/17 00:27:57;;;;;;;14.45;6.07;;;28.40;99.90;;;;;;5025457;28;20034;-65
2022/01/17 00:30:24;;;;;;;18.27;6.93;;;28.50;99.90;;;;;;5023386;28;20034;-66
2022/01/17 00:32:52;;;;;;;13.98;5.50;;;28.60;99.90;;;;;;5022419;28;20822;-65
2022/01/17 00:35:19;;;;;;;16.33;6.50;;;28.40;99.90;;;;;;5021394;28;20080;-65
2022/01/17 00:37:48;;;;;;;15.10;6.05;;;28.40;99.90;;;;;;5024640;28;20084;-65
2022/01/17 00:40:16;;;;;;;17.73;6.22;;;28.60;99.90;;;;;;5025094;28;20495;-65
2022/01/17 00:42:44;;;;;;;11.95;6.13;;;28.90;99.90;;;;;;5030120;28;20029;-65
2022/01/17 00:45:15;;;;;;;17.20;6.88;;;28.80;99.90;;;;;;5030511;28;20030;-65
2022/01/17 00:47:44;;;;;;;17.80;7.40;;;28.70;99.90;;;;;;5020480;28;20125;-66
2022/01/17 00:50:11;;;;;;;17.70;6.57;;;28.80;99.90;;;;;;5026629;28;20033;-65
2022/01/17 00:52:39;;;;;;;16.23;6.22;;;28.90;99.90;;;;;;5025265;28;20044;-65
2022/01/17 00:55:06;;;;;;;16.92;6.15;;;28.90;99.90;;;;;;5024784;28;20025;-66
2022/01/17 00:57:33;;;;;;;16.83;6.10;;;28.90;99.90;;;;;;5026284;28;20091;-65
2022/01/17 01:00:02;;;;;;;18.15;6.68;;;28.60;99.90;;;;;;5019527;28;20022;-65
2022/01/17 01:02:29;;;;;;;14.98;6.00;;;28.70;99.90;;;;;;5014257;28;20026;-65
2022/01/17 01:04:56;;;;;;;18.20;6.15;;;28.90;99.90;;;;;;5023177;28;20018;-65
2022/01/17 01:07:24;;;;;;;17.75;7.03;;;28.80;99.90;;;;;;5022790;28;20079;-65
2022/01/17 01:10:02;;;;;;;16.83;6.63;;;29.00;99.90;;;;;;5025265;28;20022;-65
2022/01/17 01:12:30;;;;;;;18.35;6.53;;;28.90;99.90;;;;;;5025315;28;20394;-65
2022/01/17 01:14:57;;;;;;;12.95;4.97;;;28.80;99.90;;;;;;5023718;28;20029;-65
2022/01/17 01:17:36;;;;;;;17.65;6.95;;;28.60;99.90;;;;;;5025277;28;20112;-65
2022/01/17 01:20:20;;;;;;;16.13;6.78;;;28.70;99.90;;;;;;5018997;28;20052;-65
2022/01/17 01:28:32;;;;;;;13.98;5.55;;;29.00;99.90;;;;;;5028421;28;20036;-66
2022/01/17 01:31:05;;;;;;;14.80;5.45;;;29.20;99.90;;;;;;5021755;28;20028;-66
2022/01/17 01:33:37;;;;;;;18.23;5.82;;;29.30;99.90;;;;;;5019985;28;20092;-66
2022/01/17 01:36:17;;;;;;;14.55;5.07;;;29.20;99.90;;;;;;5015945;28;20129;-66
2022/01/17 01:38:44;;;;;;;16.30;6.30;;;29.30;99.90;;;;;;5021320;28;20068;-66
2022/01/17 01:41:11;;;;;;;15.20;5.57;;;29.40;99.90;;;;;;5019495;28;20040;-66
2022/01/17 01:43:39;;;;;;;17.67;5.78;;;29.10;99.90;;;;;;5020264;28;20018;-66
2022/01/17 01:46:11;;;;;;;15.27;5.60;;;29.00;99.90;;;;;;5031420;28;20519;-66
2022/01/17 01:48:38;;;;;;;16.42;5.82;;;28.80;99.90;;;;;;5012911;28;20411;-66
2022/01/17 01:51:07;;;;;;;18.50;6.50;;;28.60;99.90;;;;;;5026885;28;20026;-66
2022/01/17 01:53:34;;;;;;;15.98;5.68;;;28.90;99.90;;;;;;5020720;28;20025;-66
2022/01/17 01:56:05;;;;;;;18.08;5.55;;;29.20;99.90;;;;;;5030999;28;20395;-66
2022/01/17 01:58:33;;;;;;;18.85;6.40;;;29.10;99.90;;;;;;5033063;28;20024;-66
2022/01/17 02:01:01;;;;;;;18.20;6.25;;;29.40;99.90;;;;;;5020416;28;20022;-66
2022/01/17 02:03:31;;;;;;;15.23;5.90;;;29.20;99.90;;;;;;5019910;28;20487;-66
2022/01/17 02:05:58;;;;;;;15.75;5.13;;;29.00;99.90;;;;;;5018488;28;20071;-65
2022/01/17 02:08:27;;;;;;;13.63;5.13;;;28.70;99.90;;;;;;5020656;28;20505;-65
2022/01/17 02:10:55;;;;;;;15.90;5.55;;;28.60;99.90;;;;;;5030477;28;20022;-66
2022/01/17 02:13:22;;;;;;;14.88;6.68;;;28.40;99.90;;;;;;5027224;28;20037;-66
2022/01/17 02:15:49;;;;;;;17.23;5.63;;;28.20;99.90;;;;;;5028615;28;20049;-66
2022/01/17 02:18:29;;;;;;;17.92;6.00;;;28.10;99.90;;;;;;5042959;28;20047;-64
2022/01/17 02:21:21;;;;;;;17.10;5.70;;;28.00;99.90;;;;;;5028013;28;20429;-65
2022/01/17 02:23:51;;;;;;;18.23;6.18;;;27.50;99.90;;;;;;5030522;28;20525;-64
2022/01/17 02:26:20;;;;;;;14.73;5.45;;;27.60;99.90;;;;;;5016129;28;20445;-65
2022/01/17 02:28:54;;;;;;;12.70;5.53;;;27.50;99.90;;;;;;5020095;28;20599;-65
2022/01/17 02:31:24;;;;;;;18.45;5.70;;;27.80;99.90;;;;;;5022877;28;20525;-65
2022/01/17 02:33:53;;;;;;;17.25;5.72;;;28.00;99.90;;;;;;5025226;28;20636;-65
2022/01/17 02:36:21;;;;;;;15.88;5.95;;;28.20;99.90;;;;;;5032310;28;20022;-65
2022/01/17 02:38:48;;;;;;;14.20;6.03;;;28.20;99.90;;;;;;5025406;28;20029;-64
2022/01/17 02:41:16;;;;;;;12.93;5.32;;;28.40;99.90;;;;;;5017906;28;20029;-64
2022/01/17 02:43:46;;;;;;;16.38;5.80;;;28.30;99.90;;;;;;5020269;28;20068;-64
2022/01/17 02:48:42;;;;;;;14.70;4.97;;;28.30;99.90;;;;;;5028721;28;20046;-64
2022/01/17 02:51:11;;;;;;;11.80;5.18;;;28.10;99.90;;;;;;5029697;28;20029;-64
2022/01/17 02:53:40;;;;;;;13.40;5.30;;;28.10;99.90;;;;;;5014978;28;20061;-64
2022/01/17 02:56:09;;;;;;;11.13;4.03;;;28.10;99.90;;;;;;5031353;28;20029;-64
2022/01/17 02:58:37;;;;;;;12.35;5.50;;;27.80;99.90;;;;;;5019060;28;20025;-63
2022/01/17 03:01:15;;;;;;;13.63;5.60;;;27.80;99.90;;;;;;5022645;28;20028;-64
2022/01/17 03:03:44;;;;;;;18.88;5.63;;;27.50;99.90;;;;;;5019541;28;20281;-63
2022/01/17 03:06:12;;;;;;;14.82;5.53;;;27.60;99.90;;;;;;5023685;28;20030;-64
2022/01/17 03:08:40;;;;;;;12.35;5.30;;;27.50;99.90;;;;;;5028599;28;20026;-64
2022/01/17 03:11:10;;;;;;;13.02;5.85;;;27.60;99.90;;;;;;5022944;28;20026;-64
2022/01/17 03:13:39;;;;;;;15.02;7.28;;;27.60;99.90;;;;;;5028454;28;20037;-64
2022/01/17 03:16:16;;;;;;;13.73;7.90;;;27.80;99.90;;;;;;5028026;28;20026;-64
2022/01/17 03:18:46;;;;;;;21.63;7.95;;;27.80;99.90;;;;;;5026611;28;20024;-64
2022/01/17 03:21:16;;;;;;;14.25;7.82;;;27.90;99.90;;;;;;5014092;28;20490;-64
2022/01/17 03:23:45;;;;;;;12.10;7.85;;;28.00;99.90;;;;;;5024845;28;20510;-64
2022/01/17 03:26:12;;;;;;;21.63;9.90;;;27.50;99.90;;;;;;5024498;28;20041;-64
2022/01/17 03:28:40;;;;;;;21.10;10.30;;;27.60;99.90;;;;;;5024384;28;20018;-64
2022/01/17 03:31:08;;;;;;;24.73;10.27;;;27.60;99.90;;;;;;5027763;28;20029;-64
2022/01/17 03:33:37;;;;;;;15.15;9.20;;;27.80;99.90;;;;;;5019123;28;20033;-64
2022/01/17 03:36:05;;;;;;;17.52;9.88;;;27.80;99.90;;;;;;5023470;28;20037;-64
2022/01/17 03:38:34;;;;;;;20.17;9.70;;;28.00;99.90;;;;;;5033647;28;20545;-64
2022/01/17 03:41:04;;;;;;;17.88;8.68;;;28.00;99.90;;;;;;5026980;28;20083;-66
2022/01/17 03:43:31;;;;;;;18.55;8.50;;;27.90;99.90;;;;;;5021929;28;20029;-66
2022/01/17 03:45:59;;;;;;;19.00;8.73;;;27.80;99.90;;;;;;5023309;28;20112;-65
2022/01/17 03:48:28;;;;;;;17.60;9.60;;;27.80;99.90;;;;;;5026186;28;20045;-65
2022/01/17 03:50:56;;;;;;;21.17;9.02;;;27.70;99.90;;;;;;5016473;28;20018;-65
2022/01/17 03:53:24;;;;;;;26.35;10.95;;;27.50;99.90;;;;;;5025511;28;20423;-65
2022/01/17 03:55:53;;;;;;;21.77;10.13;;;27.50;99.90;;;;;;5032128;28;20099;-64
2022/01/17 03:58:22;;;;;;;17.52;9.50;;;27.50;99.90;;;;;;5029648;28;20054;-64
2022/01/17 04:00:50;;;;;;;20.83;9.93;;;27.40;99.90;;;;;;5031647;28;20378;-64
2022/01/17 04:03:18;;;;;;;19.52;10.20;;;27.40;99.90;;;;;;5021499;28;20042;-64
2022/01/17 04:05:45;;;;;;;19.67;10.50;;;27.30;99.90;;;;;;5022651;28;20032;-63
2022/01/17 04:08:13;;;;;;;22.73;11.68;;;27.10;99.90;;;;;;5027676;28;20076;-64
2022/01/17 04:10:41;;;;;;;20.73;10.25;;;27.10;99.90;;;;;;5030282;28;20037;-64
2022/01/17 04:13:10;;;;;;;20.05;11.43;;;27.10;99.90;;;;;;5015962;28;20021;-64
2022/01/17 04:15:38;;;;;;;23.73;11.15;;;27.00;99.90;;;;;;5016740;28;20034;-64
2022/01/17 04:18:07;;;;;;;18.52;10.63;;;26.90;99.90;;;;;;5020542;28;20071;-64
2022/01/17 04:20:35;;;;;;;21.63;12.23;;;27.00;99.90;;;;;;5027046;28;20381;-64
2022/01/17 04:23:06;;;;;;;24.08;13.30;;;26.90;99.90;;;;;;5022617;28;20108;-63
2022/01/17 04:25:35;;;;;;;20.85;13.23;;;27.00;99.90;;;;;;5029077;28;20026;-64
2022/01/17 04:28:04;;;;;;;20.92;12.85;;;27.00;99.90;;;;;;5030145;28;20036;-64
2022/01/17 04:30:32;;;;;;;18.25;11.98;;;27.10;99.90;;;;;;5033090;28;20033;-64
2022/01/17 04:33:00;;;;;;;21.75;11.40;;;27.10;99.90;;;;;;5027536;28;20045;-64
2022/01/17 04:35:29;;;;;;;20.08;12.10;;;27.10;99.90;;;;;;5024109;28;20036;-64
2022/01/17 04:38:08;;;;;;;22.15;10.90;;;27.20;99.90;;;;;;5028804;28;20500;-64
2022/01/17 04:40:38;;;;;;;23.10;11.43;;;27.10;99.90;;;;;;5016686;28;20076;-64
2022/01/17 04:43:21;;;;;;;21.60;11.25;;;27.10;99.90;;;;;;5021985;28;20445;-64
2022/01/17 04:45:50;;;;;;;17.48;9.65;;;27.10;99.90;;;;;;5023587;28;20454;-65
2022/01/17 04:48:18;;;;;;;21.48;10.13;;;27.10;99.90;;;;;;5018693;28;20038;-64
2022/01/17 04:50:45;;;;;;;18.65;10.43;;;27.10;99.90;;;;;;5021048;28;20037;-64
2022/01/17 04:53:16;;;;;;;20.10;10.20;;;27.10;99.90;;;;;;5033903;28;20436;-64
2022/01/17 04:55:44;;;;;;;23.05;11.70;;;27.00;99.90;;;;;;5019748;28;20305;-64
2022/01/17 04:58:12;;;;;;;18.25;10.80;;;27.10;99.90;;;;;;5020160;28;20028;-65
2022/01/17 05:00:46;;;;;;;18.23;11.48;;;27.00;99.90;;;;;;5027945;28;20509;-65
2022/01/17 05:03:13;;;;;;;;;;;27.00;99.90;;;;;;5027670;28;20025;-65
2022/01/17 05:05:41;;;;;;;22.83;13.18;;;26.90;99.90;;;;;;5030188;28;19920;-66
2022/01/17 05:08:08;;;;;;;23.00;13.15;;;27.00;99.90;;;;;;5023651;28;20395;-66
2022/01/17 05:10:36;;;;;;;22.45;12.27;;;27.10;99.90;;;;;;5026872;28;20029;-66
2022/01/17 05:13:04;;;;;;;22.27;13.82;;;27.10;99.90;;;;;;5023020;28;20060;-66
2022/01/17 05:15:38;;;;;;;19.70;12.40;;;27.10;99.90;;;;;;5024924;28;20413;-66
2022/01/17 05:20:40;;;;;;;21.00;11.77;;;27.10;99.90;;;;;;5031493;28;20494;-66
2022/01/17 05:23:09;;;;;;;27.30;12.88;;;27.00;99.90;;;;;;5019363;28;20022;-66
2022/01/17 05:25:37;;;;;;;24.50;11.75;;;27.00;99.90;;;;;;5027055;28;20029;-66
2022/01/17 05:28:05;;;;;;;20.00;10.57;;;27.00;99.90;;;;;;5043645;28;20096;-66
2022/01/17 05:30:33;;;;;;;18.30;10.07;;;27.00;99.90;;;;;;5026010;28;20025;-66
2022/01/17 05:33:00;;;;;;;18.65;9.57;;;26.80;99.90;;;;;;5028450;28;20116;-66
2022/01/17 05:35:27;;;;;;;18.20;9.10;;;26.80;99.90;;;;;;5023590;28;20018;-66
2022/01/17 05:37:56;;;;;;;21.42;9.98;;;26.80;99.90;;;;;;5030287;28;20036;-66
2022/01/17 05:40:23;;;;;;;18.50;9.70;;;26.80;99.90;;;;;;5019303;28;20088;-66
2022/01/17 05:42:51;;;;;;;17.90;9.57;;;26.90;99.90;;;;;;5026103;28;20363;-67
2022/01/17 05:45:18;;;;;;;21.00;9.68;;;27.00;99.90;;;;;;5016430;28;20030;-66
2022/01/17 05:47:46;;;;;;;21.48;9.10;;;26.80;99.90;;;;;;5028788;28;20120;-66
2022/01/17 05:50:15;;;;;;;17.02;8.88;;;26.80;99.90;;;;;;5029933;28;20517;-66
2022/01/17 05:52:44;;;;;;;15.85;8.10;;;26.80;99.90;;;;;;5030263;28;20036;-66
2022/01/17 05:55:14;;;;;;;17.95;7.80;;;26.80;99.90;;;;;;5032439;28;20112;-66
2022/01/17 05:57:41;;;;;;;16.25;7.30;;;26.70;99.90;;;;;;5021100;28;20454;-66
2022/01/17 06:00:11;;;;;;;22.50;8.45;;;26.70;99.90;;;;;;5023922;28;20044;-65
2022/01/17 06:02:39;;;;;;;17.95;7.35;;;26.70;99.90;;;;;;5021345;28;20022;-65
2022/01/17 06:05:07;;;;;;;11.32;7.05;;;26.70;99.90;;;;;;5016850;28;20030;-65
2022/01/17 06:07:35;;;;;;;20.55;8.35;;;26.60;99.90;;;;;;5016985;28;20057;-65
2022/01/17 06:10:02;;;;;;;17.73;6.97;;;26.50;99.90;;;;;;5020665;28;20032;-66
2022/01/17 06:12:30;;;;;;;16.90;7.72;;;26.50;99.90;;;;;;5024633;28;20022;-66
2022/01/17 06:14:58;;;;;;;13.65;7.50;;;26.50;99.90;;;;;;5031743;28;20417;-66
2022/01/17 06:17:25;;;;;;;15.48;7.38;;;26.50;99.90;;;;;;5018461;28;20030;-66
2022/01/17 06:19:53;;;;;;;14.32;6.60;;;26.60;99.90;;;;;;5024423;28;20018;-66
2022/01/17 06:22:20;;;;;;;13.93;6.88;;;26.50;99.90;;;;;;5016708;28;20030;-66
2022/01/17 06:24:48;;;;;;;16.77;6.25;;;26.50;99.90;;;;;;5020992;28;20389;-66
2022/01/17 06:27:15;;;;;;;10.65;5.75;;;26.50;99.90;;;;;;5031080;28;20104;-66
2022/01/17 06:29:43;;;;;;;15.13;5.15;;;26.60;99.90;;;;;;5016350;28;20026;-66
2022/01/17 06:32:10;;;;;;;14.27;4.88;;;26.50;99.90;;;;;;5028985;28;20029;-66
2022/01/17 06:34:37;;;;;;;12.45;5.13;;;26.50;99.90;;;;;;5025221;28;20471;-65
2022/01/17 06:37:05;;;;;;;13.02;5.28;;;26.60;99.90;;;;;;5023065;28;20490;-66
2022/01/17 06:39:33;;;;;;;12.30;5.68;;;26.60;99.90;;;;;;5026935;28;20033;-66
2022/01/17 06:42:01;;;;;;;10.73;4.28;;;26.60;99.90;;;;;;5024548;28;20022;-66
2022/01/17 06:44:28;;;;;;;10.85;4.30;;;26.60;99.90;;;;;;5013889;28;20022;-66
2022/01/17 06:46:55;;;;;;;10.25;4.07;;;26.60;99.90;;;;;;5019188;28;20413;-66
2022/01/17 06:49:23;;;;;;;15.05;4.40;;;26.90;99.90;;;;;;5019497;28;20029;-66
2022/01/17 06:51:50;;;;;;;12.32;3.58;;;27.30;99.90;;;;;;5031395;28;20060;-66
2022/01/17 06:54:17;;;;;;;13.35;3.67;;;27.20;99.90;;;;;;5025917;28;20080;-65
2022/01/17 06:56:45;;;;;;;9.75;3.47;;;27.00;99.90;;;;;;5030201;28;20029;-65
2022/01/17 06:59:14;;;;;;;11.00;3.58;;;26.80;99.90;;;;;;5030448;28;20025;-66
2022/01/17 07:01:42;;;;;;;11.70;3.63;;;26.60;99.90;;;;;;5032893;28;20093;-65
2022/01/17 07:04:10;;;;;;;11.35;4.63;;;26.60;99.90;;;;;;5029201;28;20033;-66
2022/01/17 07:06:38;;;;;;;7.60;3.50;;;26.60;99.90;;;;;;5023297;28;20026;-65
2022/01/17 07:09:08;;;;;;;12.27;3.92;;;26.60;99.90;;;;;;5020092;28;20026;-66
2022/01/17 07:11:38;;;;;;;12.05;4.15;;;26.50;99.90;;;;;;5027112;28;20032;-66
2022/01/17 07:14:10;;;;;;;22.65;7.28;;;26.40;99.90;;;;;;5027942;28;20052;-64
2022/01/17 07:16:39;;;;;;;10.15;4.03;;;26.30;99.90;;;;;;5023589;28;20431;-64
2022/01/17 07:19:07;;;;;;;11.93;3.47;;;26.40;99.90;;;;;;5021475;28;20041;-64
2022/01/17 07:21:35;;;;;;;11.25;3.50;;;26.30;99.90;;;;;;5023327;28;20045;-64
2022/01/17 07:24:03;;;;;;;14.40;4.65;;;26.20;99.90;;;;;;5025523;28;20092;-64
2022/01/17 07:26:30;;;;;;;8.25;3.33;;;26.20;99.90;;;;;;5023474;28;20029;-64
2022/01/17 07:28:57;;;;;;;12.00;3.17;;;26.20;99.90;;;;;;5029824;28;20079;-64
2022/01/17 07:31:26;;;;;;;10.32;3.08;;;26.20;99.90;;;;;;5030792;28;20022;-65
2022/01/17 07:33:53;;;;;;;11.35;2.60;;;26.10;99.90;;;;;;5038522;28;20037;-64
2022/01/17 07:36:21;;;;;;;9.82;3.28;;;26.10;99.90;;;;;;5032073;28;20025;-64
2022/01/17 07:38:48;;;;;;;10.57;3.47;;;26.10;99.90;;;;;;5021742;28;20564;-64
2022/01/17 07:41:16;;;;;;;11.25;3.72;;;26.10;99.90;;;;;;5025554;28;20033;-64
2022/01/17 07:43:44;;;;;;;12.75;3.25;;;26.10;99.90;;;;;;5034862;28;20037;-64
2022/01/17 07:46:25;;;;;;;9.38;3.13;;;26.10;99.90;;;;;;5021706;28;20045;-64
2022/01/17 07:49:14;;;;;;;9.40;2.90;;;26.20;99.90;;;;;;5028450;28;20050;-64
2022/01/17 07:51:44;;;;;;;6.70;2.75;;;26.20;99.90;;;;;;5028935;28;20100;-64
2022/01/17 07:54:15;;;;;;;9.13;2.55;;;26.20;99.90;;;;;;5034834;28;20045;-64
2022/01/17 07:56:44;;;;;;;8.90;3.35;;;26.10;99.90;;;;;;5021352;28;20025;-64
2022/01/17 07:59:12;;;;;;;11.52;3.00;;;26.10;99.90;;;;;;5026117;28;20021;-64
2022/01/17 08:01:41;;;;;;;11.25;3.17;;;26.10;99.90;;;;;;5035061;28;20033;-65
2022/01/17 08:04:09;;;;;;;6.68;2.78;;;26.10;99.90;;;;;;5032051;28;20509;-65
2022/01/17 08:06:39;;;;;;;8.25;2.42;;;26.10;99.90;;;;;;5022611;28;20053;-64
2022/01/17 08:09:16;;;;;;;4.65;2.15;;;26.10;99.90;;;;;;5016794;28;20065;-64
2022/01/17 08:11:44;;;;;;;8.25;2.60;;;26.00;99.90;;;;;;5016589;28;20109;-64
2022/01/17 08:14:11;;;;;;;7.72;2.85;;;26.00;99.90;;;;;;5020903;28;20048;-64
2022/01/17 08:16:38;;;;;;;9.18;2.90;;;26.00;99.90;;;;;;5022384;28;20026;-64
2022/01/17 08:19:06;;;;;;;6.35;2.17;;;26.00;99.90;;;;;;5020592;28;20390;-64
2022/01/17 08:21:33;;;;;;;6.38;2.55;;;25.90;99.90;;;;;;5016553;28;20032;-64
2022/01/17 08:24:00;;;;;;;10.13;2.55;;;25.90;99.90;;;;;;5023042;28;20018;-64
2022/01/17 08:26:29;;;;;;;9.52;2.92;;;25.90;99.90;;;;;;5026161;28;20029;-64
2022/01/17 08:28:56;;;;;;;8.95;2.28;;;25.90;99.90;;;;;;5025078;28;20022;-64
2022/01/17 08:31:23;;;;;;;9.68;2.92;;;25.80;99.90;;;;;;5021763;28;20033;-64
2022/01/17 08:33:51;;;;;;;9.63;2.28;;;25.80;99.90;;;;;;5024468;28;20033;-64
2022/01/17 08:36:20;;;;;;;9.10;2.40;;;25.80;99.90;;;;;;5028534;28;20059;-63
2022/01/17 08:38:50;;;;;;;7.90;2.55;;;25.80;99.90;;;;;;5024480;28;20385;-61
2022/01/17 08:41:19;;;;;;;8.95;2.40;;;25.80;99.90;;;;;;5024092;28;20088;-64
2022/01/17 08:43:47;;;;;;;10.55;2.63;;;25.80;99.90;;;;;;5020194;28;20438;-64
2022/01/17 08:46:16;;;;;;;5.13;2.35;;;25.80;99.90;;;;;;5015406;28;20022;-64
2022/01/17 08:48:43;;;;;;;9.00;2.15;;;25.80;99.90;;;;;;5027428;28;20046;-64
2022/01/17 08:51:11;;;;;;;7.00;2.75;;;25.80;99.90;;;;;;5013680;28;20038;-64
2022/01/17 08:53:39;;;;;;;5.93;2.50;;;25.70;99.90;;;;;;5015567;28;20026;-63
2022/01/17 08:56:06;;;;;;;6.20;2.60;;;25.70;99.90;;;;;;5018469;28;20021;-63
2022/01/17 08:58:34;;;;;;;6.65;2.38;;;25.70;99.90;;;;;;5033039;28;20040;-64
2022/01/17 09:01:03;;;;;;;7.30;2.28;;;25.70;99.90;;;;;;5018079;28;20108;-63
2022/01/17 09:03:30;;;;;;;8.65;3.30;;;25.70;99.90;;;;;;5014365;28;20471;-63
2022/01/17 09:05:57;;;;;;;12.27;2.88;;;25.70;99.90;;;;;;5027475;28;20502;-64
2022/01/17 09:08:25;;;;;;;9.07;2.80;;;25.70;99.90;;;;;;5014148;28;20488;-64
2022/01/17 09:10:55;;;;;;;8.15;2.50;;;25.60;99.90;;;;;;5016985;28;20076;-64
2022/01/17 09:13:23;;;;;;;6.03;2.42;;;25.60;99.90;;;;;;5028003;28;20030;-63
2022/01/17 09:15:51;;;;;;;9.05;2.65;;;25.70;99.90;;;;;;5015608;28;20034;-63
2022/01/17 09:18:19;;;;;;;8.02;2.53;;;25.60;99.90;;;;;;5017513;28;20040;-64
2022/01/17 09:20:49;;;;;;;8.63;2.20;;;25.60;99.90;;;;;;5024353;28;20021;-64
2022/01/17 09:23:17;;;;;;;7.45;2.00;;;25.60;99.90;;;;;;5024250;28;20033;-64
2022/01/17 09:25:45;;;;;;;11.60;2.35;;;25.60;99.90;;;;;;5027413;28;20140;-64
2022/01/17 09:28:13;;;;;;;6.63;2.45;;;25.60;99.90;;;;;;5013611;28;20033;-64
2022/01/17 09:30:40;;;;;;;5.38;2.33;;;25.60;99.90;;;;;;5014497;28;20032;-64
2022/01/17 09:33:08;;;;;;;8.52;2.25;;;25.60;99.90;;;;;;5016685;28;20034;-64
2022/01/17 09:35:36;;;;;;;5.72;1.88;;;25.60;99.90;;;;;;5019296;28;20021;-64
2022/01/17 09:38:04;;;;;;;5.35;2.25;;;25.60;99.90;;;;;;5020267;28;20391;-64
2022/01/17 09:40:33;;;;;;;5.70;2.05;;;25.60;99.90;;;;;;5023298;28;20017;-64
2022/01/17 09:43:02;;;;;;;9.85;2.60;;;25.60;99.90;;;;;;5022376;28;20033;-64
2022/01/17 09:45:30;;;;;;;6.32;1.98;;;25.60;99.90;;;;;;5017989;28;20022;-65
2022/01/17 09:48:00;;;;;;;4.38;1.42;;;25.60;99.90;;;;;;5020346;28;20052;-64
2022/01/17 09:50:46;;;;;;;8.40;2.10;;;25.60;99.90;;;;;;5026804;28;20485;-65
2022/01/17 09:53:18;;;;;;;7.68;1.55;;;25.50;99.90;;;;;;5022699;28;20183;-64
2022/01/17 09:55:46;;;;;;;8.40;2.22;;;25.50;99.90;;;;;;5027387;28;20028;-64
2022/01/17 09:58:15;;;;;;;6.03;2.13;;;25.50;99.90;;;;;;5013190;28;20042;-64
2022/01/17 10:00:45;;;;;;;5.50;2.00;;;25.50;99.90;;;;;;5014316;28;20805;-64
2022/01/17 10:03:21;;;;;;;11.40;2.50;;;25.50;99.90;;;;;;5028319;28;20036;-64
2022/01/17 10:05:49;;;;;;;7.22;2.13;;;25.50;99.90;;;;;;5015997;28;20075;-64
2022/01/17 10:08:20;;;;;;;8.25;1.85;;;25.50;99.90;;;;;;5014531;28;20112;-64
2022/01/17 10:10:59;;;;;;;7.38;2.10;;;25.50;99.90;;;;;;5014945;28;20030;-64
2022/01/17 10:13:29;;;;;;;7.65;2.35;;;25.50;99.90;;;;;;5027389;28;20056;-64
2022/01/17 10:16:08;;;;;;;8.07;2.13;;;25.40;99.90;;;;;;5020733;28;20101;-64
2022/01/17 10:18:46;;;;;;;11.73;3.00;;;25.50;99.90;;;;;;5022819;28;20107;-64
2022/01/17 10:21:30;;;;;;;11.30;3.78;;;25.50;99.90;;;;;;5040334;28;20461;-64
2022/01/17 10:29:34;;;;;;;6.05;2.35;;;25.40;99.90;;;;;;5020032;28;20029;-64
2022/01/17 10:35:09;;;;;;;6.57;1.92;;;25.40;99.90;;;;;;5015047;28;20056;-64
2022/01/17 10:37:36;;;;;;;8.32;1.67;;;25.40;99.90;;;;;;5021228;28;20021;-64
2022/01/17 10:40:07;;;;;;;6.13;2.08;;;25.40;99.90;;;;;;5020799;28;20040;-64
2022/01/17 10:42:47;;;;;;;9.43;2.35;;;25.40;99.90;;;;;;5021528;28;20041;-64
2022/01/17 10:45:17;;;;;;;8.00;2.15;;;25.30;99.90;;;;;;5027574;28;20025;-64
2022/01/17 10:47:47;;;;;;;8.77;2.10;;;25.30;99.90;;;;;;5023490;28;20041;-65
2022/01/17 10:50:18;;;;;;;10.38;2.13;;;25.20;99.90;;;;;;5015943;28;20072;-64
2022/01/17 10:52:49;;;;;;;7.30;2.30;;;25.20;99.90;;;;;;5023087;28;20104;-64
2022/01/17 10:55:19;;;;;;;6.40;1.90;;;25.20;99.90;;;;;;5024049;28;20389;-64
2022/01/17 10:57:48;;;;;;;5.32;2.10;;;25.10;99.90;;;;;;5026415;28;20128;-64
2022/01/17 11:00:25;;;;;;;6.55;1.85;;;25.10;99.90;;;;;;5021999;28;20034;-64
2022/01/17 11:02:58;;;;;;;10.20;2.72;;;25.00;99.90;;;;;;5017901;28;20030;-64
2022/01/17 11:05:28;;;;;;;4.73;1.93;;;25.00;99.90;;;;;;5023135;28;20053;-64
2022/01/17 11:07:59;;;;;;;7.93;2.30;;;25.00;99.90;;;;;;5022658;28;20029;-64
2022/01/17 11:10:29;;;;;;;8.38;2.30;;;25.00;99.90;;;;;;5028452;28;20033;-64
2022/01/17 11:12:58;;;;;;;11.35;3.15;;;24.90;99.90;;;;;;5027573;28;20034;-64
2022/01/17 11:15:27;;;;;;;9.57;2.47;;;24.90;99.90;;;;;;5024679;28;20029;-64
2022/01/17 11:17:58;;;;;;;7.78;1.98;;;24.90;99.90;;;;;;5032173;28;20478;-64
2022/01/17 11:20:28;;;;;;;5.72;2.15;;;24.90;99.90;;;;;;5026501;28;20116;-64
2022/01/17 11:22:59;;;;;;;3.83;1.98;;;24.90;99.90;;;;;;5024208;28;20029;-64
2022/01/17 11:25:35;;;;;;;8.35;2.33;;;24.90;99.90;;;;;;5015487;28;20034;-64
2022/01/17 11:28:08;;;;;;;7.03;2.20;;;24.80;99.90;;;;;;5016398;28;20018;-64
2022/01/17 11:30:38;;;;;;;7.25;1.75;;;24.90;99.90;;;;;;5031188;28;20152;-64
2022/01/17 11:33:09;;;;;;;8.38;2.38;;;24.80;99.90;;;;;;5020921;28;20501;-64
2022/01/17 11:35:42;;;;;;;6.60;2.15;;;24.80;99.90;;;;;;5023109;28;20389;-64
2022/01/17 11:38:19;;;;;;;5.72;2.10;;;24.80;99.90;;;;;;5017398;28;20025;-64
2022/01/17 11:40:46;;;;;;;9.02;2.45;;;24.80;99.90;;;;;;5014173;28;20033;-64
2022/01/17 11:43:24;;;;;;;9.30;1.75;;;24.80;99.90;;;;;;5023126;28;20038;-64
2022/01/17 11:45:55;;;;;;;8.65;3.00;;;24.80;99.90;;;;;;5022989;28;20022;-64
2022/01/17 11:48:23;;;;;;;5.55;1.88;;;24.80;99.90;;;;;;5029319;28;20045;-64
2022/01/17 11:50:52;;;;;;;6.95;2.45;;;24.80;99.90;;;;;;5019588;28;20037;-65
2022/01/17 11:53:20;;;;;;;9.05;2.30;;;24.80;99.90;;;;;;5024770;28;20041;-65
2022/01/17 11:55:49;;;;;;;12.43;2.75;;;24.80;99.90;;;;;;5016740;28;20030;-65
2022/01/17 11:58:27;;;;;;;9.15;2.92;;;24.80;99.90;;;;;;5015690;28;20101;-63
2022/01/17 12:01:00;;;;;;;8.23;2.90;;;24.70;99.90;;;;;;5016793;28;20054;-63
2022/01/17 12:03:45;;;;;;;9.60;1.87;;;24.70;99.90;;;;;;5030806;28;20048;-63
2022/01/17 12:06:34;;;;;;;9.63;2.17;;;24.80;99.90;;;;;;5026534;28;20029;-63
2022/01/17 12:09:24;;;;;;;11.02;2.78;;;24.80;99.90;;;;;;5021961;28;20068;-63
2022/01/17 12:12:13;;;;;;;9.52;2.83;;;24.80;99.90;;;;;;5015367;28;20034;-63
2022/01/17 12:14:54;;;;;;;8.07;2.60;;;24.80;99.90;;;;;;5032481;28;20025;-63
2022/01/17 12:17:25;;;;;;;7.43;2.60;;;24.80;99.90;;;;;;5029840;28;20053;-63
2022/01/17 12:22:39;;;;;;;6.20;2.47;;;24.80;99.90;;;;;;5015057;28;20057;-63
2022/01/17 12:25:38;;;;;;;7.82;2.47;;;24.80;99.90;;;;;;5022670;28;20025;-63
2022/01/17 12:28:08;;;;;;;9.20;2.70;;;24.80;99.90;;;;;;5033020;28;20041;-63
2022/01/17 12:30:55;;;;;;;5.07;2.13;;;24.80;99.90;;;;;;5022925;28;20037;-63
2022/01/17 12:33:42;;;;;;;4.18;1.65;;;24.80;99.90;;;;;;5027915;28;20086;-63
2022/01/17 12:36:31;;;;;;;7.35;2.50;;;24.80;99.90;;;;;;5023067;28;20025;-63
2022/01/17 12:39:20;;;;;;;8.07;2.72;;;24.80;99.90;;;;;;5034401;28;20026;-63
2022/01/17 12:41:53;;;;;;;6.95;2.58;;;24.80;99.90;;;;;;5031937;28;20390;-63
2022/01/17 12:44:29;;;;;;;7.53;2.42;;;24.80;99.90;;;;;;5026335;28;20030;-63
2022/01/17 12:47:00;;;;;;;7.03;2.35;;;24.80;99.90;;;;;;5014926;28;20057;-63
2022/01/17 12:49:28;;;;;;;11.57;3.55;;;24.70;99.90;;;;;;5021448;28;20399;-63
2022/01/17 12:52:00;;;;;;;7.55;3.10;;;24.70;99.90;;;;;;5016768;28;20083;-63
2022/01/17 12:54:29;;;;;;;7.53;2.42;;;24.70;99.90;;;;;;5032636;28;20025;-63
2022/01/17 12:57:01;;;;;;;6.63;2.47;;;24.70;99.90;;;;;;5020392;28;20129;-63
2022/01/17 12:59:28;;;;;;;7.43;2.88;;;24.70;99.90;;;;;;5028810;28;20018;-63
2022/01/17 13:01:58;;;;;;;6.82;2.20;;;24.70;99.90;;;;;;5034050;28;20034;-63
2022/01/17 13:04:29;;;;;;;8.73;2.90;;;24.70;99.90;;;;;;5016596;28;20029;-63
2022/01/17 13:06:56;;;;;;;11.80;3.05;;;24.70;99.90;;;;;;5014411;28;20494;-63
2022/01/17 13:09:25;;;;;;;5.65;2.35;;;24.70;99.90;;;;;;5018221;28;20526;-63
2022/01/17 13:12:01;;;;;;;7.10;2.03;;;24.70;99.90;;;;;;5033812;28;20026;-63
2022/01/17 13:14:28;;;;;;;8.85;2.78;;;24.70;99.90;;;;;;5025696;28;20382;-63
2022/01/17 13:16:56;;;;;;;9.70;2.90;;;24.60;99.90;;;;;;5026236;28;20033;-63